Time;durP1;ratioP1;P1;durP2;ratioP2;P2;SDS_P1;SDS_P2;PMS_P1;PMS_P2;Temp;Humidity;BMP_temperature;BMP_pressure;BME280_temperature;BME280_humidity;BME280_pressure;Samples;Min_cycle;Max_cycle;Signal;HPM_P1;HPM_P2
2022/08/03 00:00:54;;;;;;;8.88;7.97;;;;;;;19.52;81.42;99731.50;1716662;82;20975;-76
2022/08/03 00:03:21;;;;;;;14.30;8.78;;;;;;;19.52;81.38;99732.84;1699490;82;21117;-77
2022/08/03 00:05:48;;;;;;;20.32;18.32;;;;;;;19.48;81.37;99740.42;1705034;84;21038;-75
2022/08/03 00:08:15;;;;;;;15.10;10.93;;;;;;;19.51;81.42;99741.39;1705585;82;20888;-77
2022/08/03 00:10:43;;;;;;;32.35;24.50;;;;;;;19.53;81.47;99747.38;1705131;82;21526;-72
2022/08/03 00:13:12;;;;;;;19.60;12.00;;;;;;;19.55;81.50;99738.62;1706640;82;21044;-72
2022/08/03 00:15:40;;;;;;;18.60;11.73;;;;;;;19.59;81.50;99741.76;1705544;82;21023;-74
2022/08/03 00:18:08;;;;;;;11.30;10.20;;;;;;;19.55;81.60;99733.27;1709879;82;21058;-73
2022/08/03 00:20:34;;;;;;;12.35;10.63;;;;;;;19.48;81.68;99720.33;1691561;82;21004;-73
2022/08/03 00:23:01;;;;;;;13.85;10.72;;;;;;;19.36;81.86;99714.69;1705935;82;21934;-72
2022/08/03 00:25:30;;;;;;;11.55;10.23;;;;;;;19.33;82.13;99727.66;1702554;82;21050;-76
2022/08/03 00:27:56;;;;;;;11.35;10.13;;;;;;;19.34;82.39;99714.06;1694992;82;21430;-72
2022/08/03 00:30:23;;;;;;;14.73;13.20;;;;;;;19.33;82.48;99715.60;1706133;82;21008;-70
2022/08/03 00:32:50;;;;;;;13.40;11.53;;;;;;;19.30;82.60;99716.83;1705768;82;21019;-71
2022/08/03 00:35:16;;;;;;;14.68;11.97;;;;;;;19.29;82.76;99712.47;1709674;82;21944;-73
2022/08/03 00:37:43;;;;;;;11.55;10.45;;;;;;;19.29;82.85;99711.64;1704983;82;20976;-76
2022/08/03 00:40:12;;;;;;;44.33;39.65;;;;;;;19.29;82.96;99711.13;1705537;83;21071;-75
2022/08/03 00:42:56;;;;;;;76.95;69.85;;;;;;;19.30;83.08;99706.11;1680690;83;21043;-71
2022/08/03 00:45:30;;;;;;;20.77;18.80;;;;;;;19.32;83.15;99708.08;1702483;82;21445;-73
2022/08/03 00:47:57;;;;;;;15.15;13.65;;;;;;;19.34;83.18;99715.91;1700482;82;21890;-74
2022/08/03 00:50:27;;;;;;;18.95;16.02;;;;;;;19.32;83.23;99716.63;1705924;82;21051;-74
2022/08/03 00:52:55;;;;;;;15.80;13.90;;;;;;;19.30;83.25;99724.86;1706158;82;20999;-77
2022/08/03 00:55:22;;;;;;;16.60;13.32;;;;;;;19.30;83.42;99738.25;1705777;82;21199;-76
2022/08/03 00:57:49;;;;;;;15.13;13.62;;;;;;;19.30;83.40;99766.36;1703261;82;21079;-73
2022/08/03 01:00:20;;;;;;;17.17;13.58;;;;;;;19.31;83.57;99775.22;1705166;82;21826;-75
2022/08/03 01:02:47;;;;;;;15.30;13.68;;;;;;;19.30;83.69;99773.05;1705275;82;21083;-71
2022/08/03 01:05:15;;;;;;;22.95;20.52;;;;;;;19.27;83.74;99788.14;1704629;83;21429;-70
2022/08/03 01:08:05;;;;;;;62.25;55.83;;;;;;;19.26;83.89;99788.34;1705846;82;21495;-72
2022/08/03 01:10:37;;;;;;;22.05;19.73;;;;;;;19.26;84.04;99793.19;1702221;82;21128;-71
2022/08/03 01:13:24;;;;;;;17.30;15.60;;;;;;;19.27;84.12;99784.64;1701113;82;21851;-74
2022/08/03 01:16:01;;;;;;;17.77;12.82;;;;;;;19.28;84.16;99772.91;1705206;82;21008;-74
2022/08/03 01:18:37;;;;;;;15.68;13.60;;;;;;;19.26;84.07;99773.61;1703230;82;21552;-78
2022/08/03 01:21:12;;;;;;;14.20;12.73;;;;;;;19.21;84.10;99766.17;1702890;82;21082;-74
2022/08/03 01:23:57;;;;;;;11.75;10.70;;;;;;;19.21;84.16;99763.50;1701552;82;21058;-76
2022/08/03 01:27:00;;;;;;;14.55;13.13;;;;;;;19.19;84.26;99762.84;1706719;82;21829;-74
2022/08/03 01:29:55;;;;;;;17.45;13.32;;;;;;;19.16;84.36;99761.89;1689133;82;20994;-73
2022/08/03 01:32:42;;;;;;;21.00;19.02;;;;;;;19.15;84.57;99753.55;1705084;82;21044;-76
2022/08/03 01:35:19;;;;;;;69.90;62.85;;;;;;;19.15;84.70;99751.70;1706285;82;21482;-73
2022/08/03 01:37:52;;;;;;;33.10;29.63;;;;;;;19.14;84.85;99748.70;1704033;81;21622;-76
2022/08/03 01:40:19;;;;;;;18.27;16.57;;;;;;;19.13;84.99;99739.53;1705055;82;21852;-77
2022/08/03 01:42:46;;;;;;;15.43;13.83;;;;;;;19.11;85.03;99738.39;1704951;82;21055;-75
2022/08/03 01:45:16;;;;;;;16.80;15.28;;;;;;;19.10;85.11;99734.55;1716006;82;21007;-76
2022/08/03 01:47:44;;;;;;;19.48;17.67;;;;;;;19.11;85.17;99747.77;1704211;82;21050;-77
2022/08/03 01:50:11;;;;;;;14.70;11.88;;;;;;;19.13;85.18;99751.58;1683187;82;21082;-77
2022/08/03 01:52:40;;;;;;;11.35;10.32;;;;;;;19.12;85.22;99745.91;1680436;82;21892;-79
2022/08/03 01:55:08;;;;;;;11.68;10.48;;;;;;;19.14;85.25;99754.06;1704993;83;21034;-77
2022/08/03 01:57:38;;;;;;;13.60;12.23;;;;;;;19.14;85.26;99742.02;1705331;82;21063;-78
2022/08/03 02:00:10;;;;;;;15.98;14.33;;;;;;;19.15;85.27;99736.97;1686603;84;20995;-75
2022/08/03 02:02:42;;;;;;;21.52;19.25;;;;;;;19.13;85.16;99747.56;1704398;82;21105;-76
2022/08/03 02:05:10;;;;;;;12.40;11.12;;;;;;;19.13;85.19;99756.42;1680634;82;23331;-75
2022/08/03 02:07:38;;;;;;;11.08;10.08;;;;;;;19.14;85.18;99765.28;1680497;82;21082;-77
2022/08/03 02:10:06;;;;;;;11.25;10.23;;;;;;;19.12;85.12;99747.25;1702342;82;21082;-77
2022/08/03 02:12:33;;;;;;;11.25;10.15;;;;;;;19.10;85.17;99750.09;1703294;82;21044;-75
2022/08/03 02:14:59;;;;;;;13.93;9.08;;;;;;;19.08;85.16;99748.64;1669084;84;21032;-77
2022/08/03 02:17:27;;;;;;;11.28;10.18;;;;;;;19.04;85.27;99753.55;1698433;82;21928;-80
2022/08/03 02:19:55;;;;;;;11.22;10.23;;;;;;;19.00;85.33;99747.42;1684173;84;21137;-76
2022/08/03 02:22:22;;;;;;;11.50;10.30;;;;;;;18.98;85.49;99738.77;1698813;83;21104;-77
2022/08/03 02:24:50;;;;;;;11.70;9.75;;;;;;;18.98;85.62;99720.86;1718952;82;21008;-78
2022/08/03 02:27:23;;;;;;;10.45;8.60;;;;;;;18.96;85.76;99739.47;1717109;82;21481;-77
2022/08/03 02:29:57;;;;;;;9.55;8.65;;;;;;;18.96;85.83;99746.16;1718358;82;21925;-79
2022/08/03 02:32:30;;;;;;;26.65;24.15;;;;;;;18.93;85.80;99744.70;1718552;82;20984;-77
2022/08/03 02:34:58;;;;;;;10.20;9.20;;;;;;;18.90;85.84;99729.02;1714036;82;21491;-77
2022/08/03 02:37:27;;;;;;;9.33;8.38;;;;;;;18.90;85.87;99736.21;1709085;83;22007;-78
2022/08/03 02:40:01;;;;;;;9.50;8.50;;;;;;;18.91;85.86;99722.63;1691553;83;20986;-78
2022/08/03 02:42:28;;;;;;;10.30;9.30;;;;;;;18.90;85.82;99720.98;1716251;82;21863;-77
2022/08/03 02:44:55;;;;;;;10.60;9.60;;;;;;;18.91;85.82;99711.93;1707351;82;20941;-77
2022/08/03 02:47:22;;;;;;;10.05;9.15;;;;;;;18.91;85.79;99701.73;1718922;82;21002;-78
2022/08/03 02:49:49;;;;;;;9.48;8.68;;;;;;;18.89;85.82;99696.59;1720103;82;21021;-79
2022/08/03 02:52:16;;;;;;;10.50;9.10;;;;;;;18.88;85.82;99687.73;1711720;83;21076;-81
2022/08/03 02:54:43;;;;;;;9.68;8.78;;;;;;;18.88;85.85;99692.25;1720200;82;21743;-80
2022/08/03 02:57:09;;;;;;;10.38;9.48;;;;;;;18.88;85.92;99692.25;1718518;82;21017;-76
2022/08/03 02:59:36;;;;;;;10.98;9.88;;;;;;;18.88;85.94;99690.41;1712078;82;21045;-80
2022/08/03 03:02:03;;;;;;;11.40;10.32;;;;;;;18.90;85.93;99694.22;1675151;82;21065;-78
2022/08/03 03:04:30;;;;;;;12.63;11.43;;;;;;;18.91;85.96;99705.75;1704186;82;21009;-77
2022/08/03 03:06:57;;;;;;;13.80;12.58;;;;;;;18.93;86.09;99701.06;1704525;82;21974;-79
2022/08/03 03:09:24;;;;;;;14.93;13.53;;;;;;;18.92;86.17;99704.77;1703716;82;20966;-77
2022/08/03 03:11:50;;;;;;;15.75;14.25;;;;;;;18.93;86.31;99693.03;1714585;82;21002;-78
2022/08/03 03:14:17;;;;;;;18.15;16.25;;;;;;;18.94;86.45;99696.02;1705323;82;21033;-77
2022/08/03 03:16:44;;;;;;;16.67;15.08;;;;;;;18.96;86.59;99699.33;1706513;81;21081;-79
2022/08/03 03:19:12;;;;;;;18.42;16.05;;;;;;;18.97;86.68;99700.98;1682320;82;21833;-79
2022/08/03 03:21:39;;;;;;;16.87;15.15;;;;;;;18.99;86.74;99702.95;1669947;84;21036;-81
2022/08/03 03:24:06;;;;;;;17.65;15.95;;;;;;;19.01;86.88;99705.77;1721519;82;20958;-79
2022/08/03 03:26:33;;;;;;;19.10;16.73;;;;;;;19.05;87.00;99700.34;1725773;80;21038;-77
2022/08/03 03:29:01;;;;;;;18.90;16.90;;;;;;;19.09;87.09;99710.14;1714532;82;21057;-80
2022/08/03 03:31:28;;;;;;;19.37;17.48;;;;;;;19.12;87.15;99705.77;1717892;82;21957;-76
2022/08/03 03:33:58;;;;;;;20.32;18.23;;;;;;;19.13;87.20;99707.41;1717863;82;21057;-78
2022/08/03 03:36:25;;;;;;;21.33;19.10;;;;;;;19.12;87.18;99705.77;1718863;82;21520;-85
2022/08/03 03:38:51;;;;;;;19.92;18.05;;;;;;;19.11;87.31;99713.48;1720805;82;21006;-80
2022/08/03 03:41:24;;;;;;;20.77;18.77;;;;;;;19.11;87.33;99715.64;1729905;82;21100;-81
2022/08/03 03:43:52;;;;;;;21.95;19.17;;;;;;;19.13;87.35;99718.95;1719829;82;22019;-81
2022/08/03 03:46:18;;;;;;;20.35;18.25;;;;;;;19.14;87.44;99725.95;1716366;82;21502;-79
2022/08/03 03:48:44;;;;;;;19.60;17.60;;;;;;;19.16;87.48;99726.58;1721958;80;21061;-78
2022/08/03 03:51:11;;;;;;;19.82;17.92;;;;;;;19.22;87.54;99721.48;1718638;82;21001;-78
2022/08/03 03:53:37;;;;;;;20.52;18.02;;;;;;;19.21;87.43;99717.98;1720230;82;21065;-77
2022/08/03 03:56:04;;;;;;;19.60;17.60;;;;;;;19.21;87.42;99726.02;1719327;82;21866;-77
2022/08/03 03:58:31;;;;;;;20.72;18.60;;;;;;;19.23;87.46;99718.61;1721744;82;21097;-76
2022/08/03 04:01:01;;;;;;;18.60;16.67;;;;;;;19.23;87.41;99717.27;1711814;82;21022;-76
2022/08/03 04:03:29;;;;;;;21.25;19.07;;;;;;;19.25;87.46;99721.09;1722341;82;21507;-80
2022/08/03 04:11:33;;;;;;;21.23;17.52;;;;;;;19.28;87.37;99715.34;1710350;83;21009;-79
2022/08/03 04:14:17;;;;;;;20.32;18.23;;;;;;;19.30;87.43;99722.18;1696235;83;21045;-78
2022/08/03 04:16:52;;;;;;;22.48;19.05;;;;;;;19.33;87.41;99722.30;1717850;82;21058;-80
2022/08/03 04:19:29;;;;;;;23.77;18.77;;;;;;;19.31;87.26;99722.50;1720618;82;21008;-79
2022/08/03 04:22:01;;;;;;;19.85;17.85;;;;;;;19.34;87.31;99731.47;1698784;83;22540;-78
2022/08/03 04:24:34;;;;;;;20.00;17.92;;;;;;;19.37;87.26;99728.91;1710847;82;21073;-79
2022/08/03 04:27:06;;;;;;;19.95;17.85;;;;;;;19.38;86.94;99739.93;1715138;82;21081;-80
2022/08/03 04:29:37;;;;;;;17.10;15.30;;;;;;;19.38;86.94;99739.93;1727157;80;21073;-80
2022/08/03 04:32:05;;;;;;;19.20;17.20;;;;;;;19.38;86.82;99737.25;1710778;82;21022;-80
2022/08/03 04:34:34;;;;;;;18.82;16.75;;;;;;;19.38;86.77;99741.27;1721615;82;23037;-80
2022/08/03 04:37:05;;;;;;;18.27;16.32;;;;;;;19.41;86.73;99747.08;1691044;82;21430;-81
2022/08/03 04:39:35;;;;;;;19.82;17.73;;;;;;;19.45;86.73;99744.83;1717978;82;21152;-81
2022/08/03 04:42:05;;;;;;;19.12;17.23;;;;;;;19.48;86.67;99745.77;1725772;82;21041;-80
2022/08/03 04:44:39;;;;;;;18.42;16.57;;;;;;;19.50;86.61;99749.11;1716735;82;20978;-79
2022/08/03 04:47:07;;;;;;;19.07;16.82;;;;;;;19.51;86.64;99750.77;1719882;82;24554;-80
2022/08/03 04:49:36;;;;;;;19.30;17.30;;;;;;;19.52;86.61;99749.73;1727096;82;21092;-77
2022/08/03 04:52:06;;;;;;;19.15;17.15;;;;;;;19.54;86.54;99749.02;1722773;82;21053;-76
2022/08/03 04:54:41;;;;;;;19.35;16.87;;;;;;;19.55;86.46;99748.52;1715584;82;21413;-76
2022/08/03 04:57:11;;;;;;;17.87;16.17;;;;;;;19.58;86.52;99745.47;1718387;82;21029;-77
2022/08/03 04:59:38;;;;;;;19.37;17.25;;;;;;;19.63;86.52;99739.02;1719902;82;21948;-78
2022/08/03 05:02:06;;;;;;;19.37;17.32;;;;;;;19.63;86.37;99743.05;1718495;82;21077;-78
2022/08/03 05:04:33;;;;;;;18.45;16.60;;;;;;;19.65;86.43;99744.50;1720798;82;21045;-79
2022/08/03 05:06:59;;;;;;;19.25;17.37;;;;;;;19.68;86.42;99748.11;1718696;83;21030;-77
2022/08/03 05:09:28;;;;;;;18.48;16.52;;;;;;;19.72;86.47;99749.39;1716183;82;21715;-80
2022/08/03 05:11:55;;;;;;;18.48;16.57;;;;;;;19.77;86.54;99755.48;1715452;82;21927;-79
2022/08/03 05:14:23;;;;;;;19.07;17.02;;;;;;;19.82;86.59;99757.59;1732085;82;20975;-78
2022/08/03 05:16:49;;;;;;;18.73;16.93;;;;;;;19.86;86.51;99759.67;1663733;83;21112;-77
2022/08/03 05:19:16;;;;;;;18.48;16.52;;;;;;;19.88;86.37;99770.19;1704836;82;21079;-78
2022/08/03 05:21:42;;;;;;;20.02;16.20;;;;;;;19.92;86.33;99766.11;1681991;83;21494;-77
2022/08/03 05:24:09;;;;;;;22.37;16.55;;;;;;;19.94;86.20;99762.20;1690111;83;22463;-77
2022/08/03 05:26:36;;;;;;;19.60;17.52;;;;;;;19.96;86.12;99768.70;1688188;83;21470;-76
2022/08/03 05:29:04;;;;;;;19.15;17.32;;;;;;;19.95;85.89;99769.73;1687153;83;21545;-76
2022/08/03 05:31:30;;;;;;;19.10;17.20;;;;;;;19.93;85.78;99767.25;1690767;83;21465;-76
2022/08/03 05:33:56;;;;;;;19.50;17.48;;;;;;;19.94;85.74;99768.08;1682013;82;20972;-77
2022/08/03 05:36:23;;;;;;;19.02;17.12;;;;;;;19.95;85.68;99769.73;1685620;84;22538;-76
2022/08/03 05:38:49;;;;;;;19.20;16.50;;;;;;;19.94;85.48;99776.11;1678998;83;21021;-76
2022/08/03 05:41:16;;;;;;;19.17;17.27;;;;;;;19.92;85.41;99778.17;1680864;83;21028;-77
2022/08/03 05:43:45;;;;;;;18.70;16.80;;;;;;;19.90;85.42;99778.38;1689003;83;21029;-77
2022/08/03 05:46:12;;;;;;;19.57;17.35;;;;;;;19.93;85.51;99786.52;1686260;83;21094;-77
2022/08/03 05:48:38;;;;;;;19.20;17.30;;;;;;;19.94;85.53;99777.45;1687206;85;21901;-79
2022/08/03 05:51:09;;;;;;;20.55;18.32;;;;;;;19.96;85.46;99782.10;1668105;84;21240;-79
2022/08/03 05:53:34;;;;;;;19.25;17.07;;;;;;;19.96;85.43;99778.91;1688237;83;20969;-80
2022/08/03 05:56:01;;;;;;;19.37;17.50;;;;;;;19.99;85.61;99788.43;1688771;83;21075;-81
2022/08/03 05:58:27;;;;;;;19.57;17.70;;;;;;;20.03;85.64;99795.04;1680753;83;21067;-82
2022/08/03 06:00:55;;;;;;;20.02;17.85;;;;;;;20.04;85.57;99794.02;1688240;83;22135;-82
2022/08/03 06:03:22;;;;;;;20.15;18.15;;;;;;;20.06;85.54;99800.51;1686148;83;21031;-82
2022/08/03 06:05:48;;;;;;;21.77;19.45;;;;;;;20.05;85.42;99799.69;1703353;83;21052;-82
2022/08/03 06:08:16;;;;;;;22.05;19.75;;;;;;;20.03;85.25;99801.74;1678611;83;21114;-80
2022/08/03 06:10:42;;;;;;;21.25;19.00;;;;;;;20.04;85.29;99807.93;1688673;83;21016;-78
2022/08/03 06:13:08;;;;;;;20.45;18.45;;;;;;;20.03;85.21;99807.10;1689311;85;21933;-79
2022/08/03 06:15:35;;;;;;;21.45;19.30;;;;;;;20.05;85.19;99805.56;1688470;83;21072;-79
2022/08/03 06:18:03;;;;;;;21.68;19.55;;;;;;;20.06;85.25;99807.22;1689220;83;21375;-79
2022/08/03 06:20:30;;;;;;;24.77;20.70;;;;;;;20.08;85.24;99798.48;1715228;82;21052;-78
2022/08/03 06:22:59;;;;;;;23.40;21.10;;;;;;;20.10;85.23;99803.95;1720422;82;21073;-79
2022/08/03 06:25:27;;;;;;;22.87;20.55;;;;;;;20.08;85.12;99808.70;1720220;83;21818;-79
2022/08/03 06:27:55;;;;;;;23.00;20.65;;;;;;;20.10;85.05;99809.32;1713752;82;21041;-78
2022/08/03 06:30:24;;;;;;;23.00;20.60;;;;;;;20.10;84.94;99812.00;1718703;82;20974;-79
2022/08/03 06:32:52;;;;;;;23.75;21.15;;;;;;;20.09;85.01;99807.67;1719853;82;21038;-78
2022/08/03 06:35:18;;;;;;;23.80;21.52;;;;;;;20.09;84.95;99810.34;1722226;81;21025;-77
2022/08/03 06:37:49;;;;;;;24.35;21.70;;;;;;;20.10;84.91;99811.17;1716419;82;21830;-77
2022/08/03 06:40:22;;;;;;;24.52;21.95;;;;;;;20.09;84.89;99810.86;1694990;82;21116;-79
2022/08/03 06:42:48;;;;;;;25.07;22.47;;;;;;;20.09;84.88;99811.69;1716949;82;21046;-76
2022/08/03 06:45:14;;;;;;;24.35;21.95;;;;;;;20.09;84.95;99812.20;1715144;83;20991;-79
2022/08/03 06:47:42;;;;;;;23.92;21.35;;;;;;;20.10;84.87;99807.16;1717452;82;20963;-78
2022/08/03 06:50:09;;;;;;;23.67;21.45;;;;;;;20.11;84.89;99810.14;1696532;83;21879;-80
2022/08/03 06:52:37;;;;;;;22.82;20.60;;;;;;;20.13;84.98;99811.59;1721057;82;21551;-78
2022/08/03 06:55:10;;;;;;;23.25;20.72;;;;;;;20.18;84.99;99811.84;1720832;82;21002;-78
2022/08/03 06:57:39;;;;;;;21.77;19.67;;;;;;;20.25;84.99;99817.22;1713145;82;21076;-77
2022/08/03 07:00:13;;;;;;;22.32;20.23;;;;;;;20.37;85.29;99814.32;1724233;82;20986;-76
2022/08/03 07:02:42;;;;;;;20.37;18.45;;;;;;;20.53;85.50;99808.63;1720578;82;23752;-77
2022/08/03 07:05:09;;;;;;;20.37;18.35;;;;;;;20.68;85.15;99804.98;1711453;82;21050;-77
2022/08/03 07:07:36;;;;;;;19.95;18.12;;;;;;;20.76;84.65;99812.34;1716521;82;20971;-76
2022/08/03 07:10:08;;;;;;;18.98;17.27;;;;;;;20.87;84.39;99816.30;1728302;82;21815;-76
2022/08/03 07:12:35;;;;;;;19.23;17.35;;;;;;;20.94;83.73;99813.13;1727539;82;21017;-76
2022/08/03 07:15:04;;;;;;;18.67;16.80;;;;;;;21.00;83.38;99808.27;1730601;82;23444;-78
2022/08/03 07:17:35;;;;;;;17.80;16.10;;;;;;;21.08;83.22;99814.80;1720250;82;22388;-79
2022/08/03 07:20:09;;;;;;;16.62;14.87;;;;;;;21.19;83.09;99813.89;1715938;82;21163;-76
2022/08/03 07:22:35;;;;;;;17.45;14.75;;;;;;;21.28;82.76;99808.66;1722894;82;21026;-83
2022/08/03 07:25:05;;;;;;;15.53;14.03;;;;;;;21.33;81.92;99815.09;1720322;82;21017;-77
2022/08/03 07:27:34;;;;;;;14.95;13.53;;;;;;;21.37;81.42;99812.80;1720683;82;23463;-79
2022/08/03 07:30:00;;;;;;;15.25;13.75;;;;;;;21.41;81.19;99814.86;1718473;82;21073;-77
2022/08/03 07:32:30;;;;;;;14.43;13.13;;;;;;;21.43;80.79;99820.88;1732215;82;21084;-76
2022/08/03 07:34:56;;;;;;;14.95;13.55;;;;;;;21.48;80.62;99814.05;1721932;82;21349;-76
2022/08/03 07:37:23;;;;;;;14.70;13.25;;;;;;;21.50;80.26;99821.38;1706691;82;21579;-78
2022/08/03 07:39:49;;;;;;;14.95;13.55;;;;;;;21.48;79.97;99821.59;1718723;82;21757;-78
2022/08/03 07:42:16;;;;;;;14.53;13.08;;;;;;;21.50;79.88;99824.07;1718288;82;21065;-77
2022/08/03 07:44:42;;;;;;;13.88;12.63;;;;;;;21.50;79.56;99820.86;1715779;82;20953;-77
2022/08/03 07:47:09;;;;;;;14.33;12.98;;;;;;;21.54;79.36;99820.78;1698038;82;21211;-76
2022/08/03 07:49:40;;;;;;;14.03;12.73;;;;;;;21.58;78.90;99819.84;1721591;82;20985;-77
2022/08/03 07:54:54;;;;;;;14.58;13.08;;;;;;;21.59;78.38;99826.34;1708893;82;20978;-77
2022/08/03 07:57:20;;;;;;;14.53;13.13;;;;;;;21.69;78.41;99831.31;1722660;81;21448;-77
2022/08/03 07:59:50;;;;;;;14.60;13.25;;;;;;;21.74;77.83;99830.70;1715370;82;21503;-76
2022/08/03 08:02:17;;;;;;;13.75;12.37;;;;;;;21.78;77.63;99834.09;1693960;83;21096;-76
2022/08/03 08:04:43;;;;;;;14.55;13.20;;;;;;;21.82;77.56;99835.36;1714904;82;21434;-78
2022/08/03 08:07:12;;;;;;;14.30;13.00;;;;;;;21.87;77.54;99834.20;1716092;83;21113;-73
2022/08/03 08:09:41;;;;;;;15.10;13.60;;;;;;;21.97;77.89;99836.46;1716816;83;21056;-73
2022/08/03 08:12:11;;;;;;;13.72;12.45;;;;;;;22.08;77.44;99839.06;1715581;83;22397;-71
2022/08/03 08:14:38;;;;;;;12.90;11.75;;;;;;;22.16;76.95;99842.36;1715569;83;21053;-77
2022/08/03 08:17:06;;;;;;;12.55;11.25;;;;;;;22.27;77.06;99844.40;1730000;82;21774;-77
2022/08/03 08:19:35;;;;;;;11.10;10.13;;;;;;;22.38;76.08;99846.13;1721387;82;21061;-74
2022/08/03 08:22:03;;;;;;;11.97;10.88;;;;;;;22.44;75.36;99848.81;1721971;82;20958;-72
2022/08/03 08:24:32;;;;;;;11.28;10.18;;;;;;;22.52;75.26;99855.83;1715073;82;21119;-79
2022/08/03 08:27:02;;;;;;;11.45;10.45;;;;;;;22.65;75.20;99845.53;1720504;82;21065;-72
2022/08/03 08:29:31;;;;;;;11.30;10.18;;;;;;;22.80;74.80;99856.87;1723556;83;23182;-72
2022/08/03 08:32:01;;;;;;;11.65;10.53;;;;;;;22.92;74.21;99860.56;1716705;82;21000;-72
2022/08/03 08:34:33;;;;;;;11.40;10.20;;;;;;;22.96;73.37;99869.03;1712944;82;20994;-72
2022/08/03 08:37:03;;;;;;;269.90;243.02;;;;;;;22.92;72.45;99865.95;1720596;82;21061;-74
2022/08/03 08:39:31;;;;;;;25.20;22.82;;;;;;;22.92;72.45;99860.56;1719316;83;21069;-71
2022/08/03 08:41:59;;;;;;;18.27;16.57;;;;;;;23.02;72.39;99865.48;1710389;83;21933;-76
2022/08/03 08:44:29;;;;;;;12.40;11.20;;;;;;;23.15;72.34;99861.36;1710833;82;21057;-73
2022/08/03 08:46:57;;;;;;;11.90;10.72;;;;;;;23.31;71.87;99864.91;1719413;83;20974;-75
2022/08/03 08:49:23;;;;;;;11.45;10.45;;;;;;;23.43;71.17;99865.85;1714208;82;20934;-76
2022/08/03 08:51:55;;;;;;;10.10;9.20;;;;;;;23.47;70.67;99867.61;1700524;82;20962;-75
2022/08/03 08:54:23;;;;;;;12.55;10.32;;;;;;;23.60;70.76;99870.23;1733189;82;21926;-73
2022/08/03 08:56:51;;;;;;;11.08;9.35;;;;;;;23.69;70.15;99871.61;1723086;82;21037;-76
2022/08/03 08:59:19;;;;;;;10.45;9.45;;;;;;;23.75;70.26;99873.97;1703465;82;21076;-73
2022/08/03 09:01:47;;;;;;;9.70;8.80;;;;;;;23.87;70.36;99884.86;1717310;82;21072;-79
2022/08/03 09:04:21;;;;;;;13.03;9.83;;;;;;;23.97;70.35;99883.84;1709325;82;21061;-73
2022/08/03 09:06:48;;;;;;;10.75;9.60;;;;;;;23.99;69.89;99883.91;1723387;83;22500;-73
2022/08/03 09:09:16;;;;;;;10.72;9.63;;;;;;;24.02;69.88;99887.20;1722299;82;20956;-74
2022/08/03 09:11:43;;;;;;;9.95;8.95;;;;;;;23.99;69.27;99886.61;1720221;82;21068;-76
2022/08/03 09:14:12;;;;;;;10.72;9.68;;;;;;;23.90;68.83;99893.33;1714537;83;21481;-74
2022/08/03 09:17:01;;;;;;;10.58;9.58;;;;;;;23.82;68.76;99888.20;1722897;82;20974;-72
2022/08/03 09:19:31;;;;;;;12.75;9.50;;;;;;;23.76;68.81;99887.75;1720229;82;21827;-72
2022/08/03 09:22:17;;;;;;;12.40;9.55;;;;;;;23.74;69.16;99882.25;1678693;85;21059;-73
2022/08/03 09:25:02;;;;;;;10.25;9.28;;;;;;;23.78;69.55;99885.66;1672390;85;21000;-74
2022/08/03 09:27:48;;;;;;;13.05;10.25;;;;;;;23.85;69.31;99881.04;1609108;87;21191;-72
2022/08/03 09:30:19;;;;;;;11.43;10.43;;;;;;;23.86;68.76;99888.61;1666590;84;21012;-72
2022/08/03 09:32:47;;;;;;;12.03;10.82;;;;;;;23.85;68.60;99894.53;1689569;83;21869;-72
2022/08/03 09:35:14;;;;;;;10.78;9.78;;;;;;;23.77;67.69;99892.09;1708227;82;20999;-73
2022/08/03 09:37:42;;;;;;;11.60;10.60;;;;;;;23.70;68.35;99887.27;1702837;83;21082;-73
2022/08/03 09:40:10;;;;;;;11.83;10.75;;;;;;;23.70;68.45;99883.22;1695861;83;21003;-73
2022/08/03 09:42:44;;;;;;;12.00;10.80;;;;;;;23.69;68.43;99892.36;1633492;84;21051;-73
2022/08/03 09:45:26;;;;;;;12.18;11.12;;;;;;;23.67;68.45;99892.58;1678131;84;22723;-72
2022/08/03 09:47:55;;;;;;;14.33;11.80;;;;;;;23.65;68.34;99892.50;1694486;83;21046;-74
2022/08/03 09:50:24;;;;;;;12.53;11.18;;;;;;;23.69;68.75;99896.41;1702313;84;21071;-75
2022/08/03 09:52:52;;;;;;;13.50;11.63;;;;;;;23.74;68.29;99891.20;1697620;83;21195;-75
2022/08/03 09:55:23;;;;;;;12.35;11.20;;;;;;;23.74;68.45;99893.03;1702425;83;21051;-74
2022/08/03 09:57:50;;;;;;;12.58;11.38;;;;;;;23.74;68.70;99897.08;1702171;84;22985;-74
2022/08/03 10:00:20;;;;;;;12.30;11.00;;;;;;;23.72;68.36;99893.78;1700977;83;21054;-75
2022/08/03 10:02:49;;;;;;;13.83;11.50;;;;;;;23.75;68.82;99902.80;1711470;83;21007;-76
2022/08/03 10:05:15;;;;;;;13.15;11.95;;;;;;;23.74;68.44;99907.38;1705049;81;21078;-73
2022/08/03 10:07:49;;;;;;;12.88;11.68;;;;;;;23.72;68.65;99908.09;1714125;83;21016;-74
2022/08/03 10:10:16;;;;;;;13.13;11.08;;;;;;;23.67;68.44;99902.02;1711061;83;21786;-74
2022/08/03 10:12:47;;;;;;;13.20;11.80;;;;;;;23.69;68.69;99905.84;1700481;83;21050;-72
2022/08/03 10:15:15;;;;;;;12.18;11.08;;;;;;;23.64;68.45;99905.66;1694725;83;21104;-74
2022/08/03 10:17:42;;;;;;;12.98;11.57;;;;;;;23.63;68.47;99904.01;1674297;84;20974;-75
2022/08/03 10:20:12;;;;;;;12.63;11.40;;;;;;;23.70;68.85;99898.05;1716433;81;21031;-73
2022/08/03 10:22:40;;;;;;;12.10;10.90;;;;;;;23.82;68.76;99903.03;1735942;81;21816;-72
2022/08/03 10:25:10;;;;;;;12.25;11.08;;;;;;;23.88;67.95;99902.16;1725752;81;21009;-72
2022/08/03 10:27:42;;;;;;;13.22;11.83;;;;;;;23.96;67.85;99895.68;1722995;81;21036;-73
2022/08/03 10:30:11;;;;;;;13.03;11.85;;;;;;;24.06;67.35;99891.95;1695134;83;21049;-73
2022/08/03 10:32:48;;;;;;;14.43;12.98;;;;;;;24.12;67.05;99897.80;1708919;83;21034;-74
2022/08/03 10:35:20;;;;;;;16.27;13.08;;;;;;;24.09;66.92;99892.85;1726856;81;21944;-73
2022/08/03 10:37:58;;;;;;;14.78;13.13;;;;;;;24.10;66.83;99904.47;1708828;82;21073;-73
2022/08/03 10:40:30;;;;;;;37.83;15.53;;;;;;;24.09;66.49;99901.47;1720253;82;21013;-73
2022/08/03 10:43:03;;;;;;;17.77;15.30;;;;;;;24.01;66.77;99897.17;1715714;81;21049;-71
2022/08/03 10:45:30;;;;;;;19.35;15.88;;;;;;;23.91;66.86;99907.11;1714616;81;21019;-73
2022/08/03 10:47:57;;;;;;;17.30;15.63;;;;;;;23.79;67.37;99900.78;1728629;81;21882;-73
2022/08/03 10:50:27;;;;;;;17.90;16.20;;;;;;;23.74;67.74;99901.13;1656674;83;21089;-73
2022/08/03 10:53:06;;;;;;;17.35;15.32;;;;;;;23.76;67.95;99901.76;1715188;83;20993;-73
2022/08/03 10:58:50;;;;;;;16.37;14.80;;;;;;;24.09;68.25;99898.25;1750104;80;20919;-76
2022/08/03 11:01:21;;;;;;;30.10;16.15;;;;;;;24.48;67.48;99890.31;1721343;81;21830;-78
2022/08/03 11:03:57;;;;;;;17.67;14.20;;;;;;;24.80;66.46;99894.20;1721920;81;21005;-74
2022/08/03 11:06:26;;;;;;;16.23;14.53;;;;;;;24.98;65.66;99889.31;1720328;82;21030;-73
2022/08/03 11:09:16;;;;;;;15.60;14.07;;;;;;;25.12;64.82;99881.38;1719008;82;20997;-73
2022/08/03 11:11:49;;;;;;;15.30;13.70;;;;;;;25.31;64.93;99877.57;1737905;82;20974;-76
2022/08/03 11:14:20;;;;;;;16.30;13.13;;;;;;;25.54;64.25;99878.15;1721236;82;21822;-73
2022/08/03 11:16:57;;;;;;;14.90;12.90;;;;;;;25.85;63.84;99883.00;1725950;82;21049;-70
2022/08/03 11:19:47;;;;;;;14.05;12.73;;;;;;;26.16;61.70;99880.51;1696886;82;21591;-70
2022/08/03 11:22:14;;;;;;;13.50;12.30;;;;;;;26.42;61.50;99882.73;1719062;82;21092;-74
2022/08/03 11:24:50;;;;;;;13.60;12.30;;;;;;;26.68;60.93;99881.41;1723852;82;21056;-75
2022/08/03 11:27:22;;;;;;;18.07;12.20;;;;;;;26.87;59.66;99879.36;1711463;82;21827;-75
2022/08/03 11:30:02;;;;;;;13.35;11.85;;;;;;;26.99;58.66;99886.08;1720669;81;21070;-71
2022/08/03 13:11:40;;;;;;;7.33;5.80;;;;;;;22.80;74.76;99825.37;1706606;77;21055;-71
2022/08/03 13:14:08;;;;;;;7.58;6.28;;;;;;;22.81;75.08;99836.98;1720248;82;21041;-71
2022/08/03 13:16:35;;;;;;;7.20;6.42;;;;;;;22.80;75.27;99835.33;1684109;84;21944;-73
2022/08/03 13:19:01;;;;;;;6.53;5.92;;;;;;;22.77;75.41;99833.87;1706836;82;21059;-78
2022/08/03 13:21:28;;;;;;;7.70;6.22;;;;;;;22.83;75.87;99830.85;1720817;82;20996;-73